logo
Search for airport 
image banner adimage banner adimage banner ad
image banner ad

EIRT - Rathcool

Located in , Ireland

ICAO - EIRT, IATA -

Data provided by Airmate  

General information

Coordinates: N52°6'20" W8°58'60"
Elevation is 281 feet MSL.
Magnetic variation is -4.633° East
View others Airports in County Cork

Operational data

Special qualification required
Current time UTC:
Current local time:
Weather at : EIKY - Kerry ( 38 km )
METAR: EIKY 191630Z 32008KT 280V360 9999 BKN017 12/09 Q1025
TAF: TAF EIKY 191400Z 1915/1924 32008KT 9999 FEW014 BKN020 PROB40 TEMPO 1922/1924 0500 FG BKN001
View NOTAMs / SUP AIP / TFR affecting this airport [VIEW]
Communications frequencies: [VIEW]

Runways:

RWY identifierQFULength (ft)Width (ft)SurfaceLDA (ft)
09147659GRASS1476
27147659GRASS1476

Airport contact information

Address: Ireland

Satellite view of EIRT